Time;durP1;ratioP1;P1;durP2;ratioP2;P2;SDS_P1;SDS_P2;PMS_P1;PMS_P2;Temp;Humidity;BMP_temperature;BMP_pressure;BME280_temperature;BME280_humidity;BME280_pressure;Samples;Min_cycle;Max_cycle;Signal;HPM_P1;HPM_P2
2022/09/06 00:00:57;;;;;;;;;;;26.40;72.90;;;;;;5040638;28;20422;-64
2022/09/06 00:03:22;;;;;;;;;;;26.40;72.90;;;;;;5030387;28;19925;-62
2022/09/06 00:05:48;;;;;;;;;;;26.40;73.00;;;;;;5051718;28;19925;-67
2022/09/06 00:08:14;;;;;;;;;;;26.10;72.80;;;;;;5037096;28;19925;-62
2022/09/06 00:10:41;;;;;;;;;;;26.30;72.40;;;;;;5036079;28;19929;-62
2022/09/06 00:13:07;;;;;;;;;;;26.20;72.60;;;;;;5050764;28;19978;-62
2022/09/06 00:15:33;;;;;;;;;;;26.30;73.00;;;;;;5047617;28;19925;-62
2022/09/06 00:17:59;;;;;;;;;;;26.40;73.00;;;;;;5039676;28;20279;-62
2022/09/06 00:20:26;;;;;;;;;;;26.10;72.80;;;;;;5031052;28;19971;-62
2022/09/06 00:22:55;;;;;;;;;;;26.00;72.50;;;;;;5052863;28;19978;-62
2022/09/06 00:25:21;;;;;;;;;;;26.30;73.00;;;;;;5042253;28;19937;-62
2022/09/06 00:27:46;;;;;;;;;;;26.20;72.70;;;;;;5045279;28;20294;-62
2022/09/06 00:30:12;;;;;;;;;;;26.20;72.60;;;;;;5051560;28;19979;-62
2022/09/06 00:32:38;;;;;;;;;;;26.20;72.50;;;;;;5037623;28;20319;-62
2022/09/06 00:35:05;;;;;;;;;;;26.40;72.60;;;;;;5029141;28;19972;-62
2022/09/06 00:37:30;;;;;;;;;;;26.10;72.00;;;;;;5050281;28;19976;-62
2022/09/06 00:39:56;;;;;;;;;;;26.30;72.50;;;;;;5034965;28;20030;-64
2022/09/06 00:42:21;;;;;;;;;;;26.30;72.50;;;;;;5051745;28;20016;-62
2022/09/06 00:44:48;;;;;;;;;;;26.30;72.60;;;;;;5056327;28;20379;-63
2022/09/06 00:47:13;;;;;;;;;;;26.30;72.70;;;;;;5050844;28;19925;-63
2022/09/06 00:49:49;;;;;;;;;;;26.20;72.40;;;;;;5036379;28;19928;-62
2022/09/06 00:52:14;;;;;;;;;;;26.20;72.10;;;;;;5027050;28;19925;-62
2022/09/06 00:54:40;;;;;;;;;;;26.30;72.70;;;;;;5039897;28;19927;-62
2022/09/06 00:57:06;;;;;;;;;;;26.20;72.20;;;;;;5044339;28;20024;-64
2022/09/06 00:59:32;;;;;;;;;;;26.60;72.80;;;;;;5044124;28;19932;-62
2022/09/06 01:01:58;;;;;;;;;;;26.10;72.50;;;;;;5045744;28;19932;-62
2022/09/06 01:04:23;;;;;;;;;;;26.30;72.60;;;;;;5053892;28;19925;-62
2022/09/06 01:07:04;;;;;;;;;;;26.20;72.50;;;;;;5060478;28;20398;-62
2022/09/06 01:09:49;;;;;;;;;;;26.10;71.10;;;;;;5059546;28;19929;-63
2022/09/06 01:12:18;;;;;;;;;;;26.50;71.40;;;;;;5042612;28;20271;-65
2022/09/06 01:14:50;;;;;;;;;;;26.20;71.10;;;;;;5067043;28;19926;-62
2022/09/06 01:17:22;;;;;;;;;;;26.20;72.50;;;;;;5042562;28;20342;-64
2022/09/06 01:20:08;;;;;;;;;;;26.20;71.20;;;;;;5038657;28;20356;-62
2022/09/06 01:22:34;;;;;;;;;;;26.40;72.60;;;;;;5052519;28;19924;-62
2022/09/06 01:25:02;;;;;;;;;;;26.40;72.40;;;;;;5054356;28;19990;-62
2022/09/06 01:27:47;;;;;;;;;;;26.10;71.00;;;;;;5057133;28;19929;-62
2022/09/06 01:30:13;;;;;;;;;;;26.40;71.20;;;;;;5047413;28;20294;-62
2022/09/06 01:32:57;;;;;;;;;;;26.40;72.40;;;;;;5025420;28;20011;-62
2022/09/06 01:35:32;;;;;;;;;;;26.00;70.90;;;;;;5049471;28;20023;-62
2022/09/06 01:37:58;;;;;;;;;;;26.50;71.40;;;;;;5051395;28;20040;-62
2022/09/06 01:40:23;;;;;;;;;;;26.10;72.30;;;;;;5041520;28;19999;-62
2022/09/06 01:42:49;;;;;;;;;;;26.20;72.20;;;;;;5051282;28;19939;-62
2022/09/06 01:45:15;;;;;;;;;;;26.20;72.40;;;;;;5034006;28;20399;-61
2022/09/06 01:47:50;;;;;;;;;;;26.10;72.50;;;;;;5042297;28;19966;-62
2022/09/06 01:50:23;;;;;;;;;;;26.20;71.10;;;;;;5035164;28;19931;-63
2022/09/06 01:53:02;;;;;;;;;;;26.30;72.60;;;;;;5058124;28;19932;-62
2022/09/06 01:55:31;;;;;;;;;;;26.20;71.00;;;;;;5046499;28;19932;-62
2022/09/06 01:57:56;;;;;;;;;;;26.20;71.00;;;;;;5040037;28;19944;-62
2022/09/06 02:00:22;;;;;;;;;;;26.30;72.50;;;;;;5044616;28;19925;-62
2022/09/06 02:02:54;;;;;;;;;;;26.30;72.50;;;;;;5060496;28;19971;-62
2022/09/06 02:05:26;;;;;;;;;;;26.30;71.20;;;;;;5042583;28;20040;-62
2022/09/06 02:07:52;;;;;;;;;;;26.40;71.30;;;;;;5056422;28;19971;-62
2022/09/06 02:10:23;;;;;;;;;;;26.20;72.70;;;;;;5045887;28;19998;-62
2022/09/06 02:12:49;;;;;;;;;;;26.20;71.20;;;;;;5060493;28;19924;-62
2022/09/06 02:15:16;;;;;;;;;;;26.20;72.60;;;;;;5041344;28;20378;-62
2022/09/06 02:17:46;;;;;;;;;;;26.20;72.70;;;;;;5045199;28;20370;-62
2022/09/06 02:20:13;;;;;;;;;;;26.00;72.50;;;;;;5040901;28;20399;-62
2022/09/06 02:22:40;;;;;;;;;;;26.10;72.50;;;;;;5040616;28;19925;-62
2022/09/06 02:25:06;;;;;;;;;;;26.30;72.70;;;;;;5052220;28;19975;-62
2022/09/06 02:27:32;;;;;;;;;;;26.20;72.20;;;;;;5059977;28;19979;-62
2022/09/06 02:29:57;;;;;;;;;;;26.00;72.30;;;;;;5049436;28;19925;-63
2022/09/06 02:32:23;;;;;;;;;;;26.40;72.60;;;;;;5043931;28;20278;-62
2022/09/06 02:34:50;;;;;;;;;;;26.20;72.50;;;;;;5053292;28;19925;-62
2022/09/06 02:37:15;;;;;;;;;;;26.20;72.60;;;;;;5027158;28;19932;-62
2022/09/06 02:39:41;;;;;;;;;;;26.10;72.30;;;;;;5048197;28;19925;-62
2022/09/06 02:42:10;;;;;;;;;;;26.30;72.30;;;;;;5055079;28;19925;-62
2022/09/06 02:44:36;;;;;;;;;;;26.00;72.50;;;;;;5036690;28;19932;-62
2022/09/06 02:47:02;;;;;;;;;;;26.10;72.40;;;;;;5033401;28;19925;-67
2022/09/06 02:49:28;;;;;;;;;;;26.40;72.80;;;;;;5035974;28;19928;-62
2022/09/06 02:51:54;;;;;;;;;;;26.00;72.60;;;;;;5044788;28;19947;-62
2022/09/06 02:54:19;;;;;;;;;;;25.80;72.30;;;;;;5044258;28;20422;-62
2022/09/06 02:56:45;;;;;;;;;;;26.10;72.40;;;;;;5041361;28;19975;-64
2022/09/06 02:59:11;;;;;;;;;;;26.30;72.70;;;;;;5036589;28;19925;-62
2022/09/06 03:01:37;;;;;;;;;;;26.00;72.40;;;;;;5046003;28;20322;-62
2022/09/06 03:04:02;;;;;;;;;;;25.90;72.50;;;;;;5035173;28;20286;-62
2022/09/06 03:06:28;;;;;;;;;;;25.90;72.30;;;;;;5050231;28;19933;-62
2022/09/06 03:08:54;;;;;;;;;;;25.80;72.40;;;;;;5039652;28;20444;-63
2022/09/06 03:11:19;;;;;;;;;;;26.20;72.30;;;;;;5048308;28;19936;-62
2022/09/06 03:13:45;;;;;;;;;;;26.00;72.40;;;;;;5061040;28;19925;-62
2022/09/06 03:16:11;;;;;;;;;;;25.80;72.50;;;;;;5045773;28;20293;-62
2022/09/06 03:18:36;;;;;;;;;;;26.00;72.40;;;;;;5040949;28;19932;-62
2022/09/06 03:21:02;;;;;;;;;;;25.80;72.40;;;;;;5052722;28;19925;-62
2022/09/06 03:23:27;;;;;;;;;;;26.00;72.50;;;;;;5047948;28;19947;-63
2022/09/06 03:25:53;;;;;;;;;;;25.80;72.40;;;;;;5046247;28;19924;-63
2022/09/06 03:28:19;;;;;;;;;;;25.70;72.30;;;;;;5043544;28;19924;-64
2022/09/06 03:30:45;;;;;;;;;;;25.80;72.70;;;;;;5033107;28;19991;-62
2022/09/06 03:33:11;;;;;;;;;;;25.90;72.80;;;;;;5043741;28;19925;-62
2022/09/06 03:35:37;;;;;;;;;;;26.00;72.80;;;;;;5052818;28;19931;-62
2022/09/06 03:38:02;;;;;;;;;;;25.80;72.40;;;;;;5029164;28;19925;-64
2022/09/06 03:40:28;;;;;;;;;;;25.90;72.70;;;;;;5017191;28;20019;-65
2022/09/06 03:42:54;;;;;;;;;;;25.90;72.60;;;;;;5047732;28;19925;-62
2022/09/06 03:45:19;;;;;;;;;;;26.10;72.80;;;;;;5048666;28;19932;-62
2022/09/06 03:47:45;;;;;;;;;;;25.80;72.40;;;;;;5030388;28;19926;-62
2022/09/06 03:50:11;;;;;;;;;;;26.10;72.40;;;;;;5050697;28;19925;-62
2022/09/06 03:52:36;;;;;;;;;;;26.10;72.70;;;;;;5046318;28;19928;-62
2022/09/06 03:55:02;;;;;;;;;;;26.00;72.80;;;;;;5030219;28;19932;-62
2022/09/06 03:57:28;;;;;;;;;;;25.80;72.70;;;;;;5055993;28;19987;-62
2022/09/06 03:59:53;;;;;;;;;;;25.90;72.70;;;;;;5048008;28;20027;-62
2022/09/06 04:02:19;;;;;;;;;;;25.90;72.70;;;;;;5044628;28;20255;-62
2022/09/06 04:04:45;;;;;;;;;;;25.90;72.70;;;;;;5032546;28;20378;-61
2022/09/06 04:07:10;;;;;;;;;;;25.90;72.80;;;;;;5055949;28;20385;-62
2022/09/06 04:09:36;;;;;;;;;;;25.80;72.60;;;;;;5052044;28;19984;-62
2022/09/06 04:12:02;;;;;;;;;;;25.90;72.70;;;;;;5021669;28;19929;-62
2022/09/06 04:14:30;;;;;;;;;;;25.90;72.80;;;;;;5063394;28;20277;-62
2022/09/06 04:16:55;;;;;;;;;;;25.70;72.20;;;;;;5036443;28;19925;-62
2022/09/06 04:19:22;;;;;;;;;;;25.90;72.60;;;;;;5041740;28;20378;-62
2022/09/06 04:21:48;;;;;;;;;;;26.00;72.80;;;;;;5055288;28;19947;-62
2022/09/06 04:24:13;;;;;;;;;;;25.80;72.60;;;;;;5055653;28;19925;-62
2022/09/06 04:26:39;;;;;;;;;;;25.90;72.60;;;;;;5052278;28;19929;-62
2022/09/06 04:29:05;;;;;;;;;;;25.90;73.40;;;;;;5037150;28;19921;-63
2022/09/06 04:31:30;;;;;;;;;;;25.80;72.70;;;;;;5047814;28;20031;-62
2022/09/06 04:33:56;;;;;;;;;;;26.10;73.00;;;;;;5047236;28;19948;-65
2022/09/06 04:36:22;;;;;;;;;;;26.10;72.90;;;;;;5065601;28;19971;-63
2022/09/06 04:38:47;;;;;;;;;;;25.60;72.60;;;;;;5070988;28;19925;-62
2022/09/06 04:41:14;;;;;;;;;;;25.80;72.70;;;;;;5045529;28;20731;-62
2022/09/06 04:43:40;;;;;;;;;;;25.80;73.00;;;;;;5025599;28;19936;-63
2022/09/06 04:46:19;;;;;;;;;;;26.10;72.60;;;;;;5039379;28;20294;-63
2022/09/06 04:48:45;;;;;;;;;;;26.00;71.60;;;;;;5042418;28;20320;-62
2022/09/06 04:51:11;;;;;;;;;;;26.00;73.10;;;;;;5043933;28;20018;-62
2022/09/06 04:53:36;;;;;;;;;;;26.00;73.00;;;;;;5044384;28;19979;-65
2022/09/06 04:56:02;;;;;;;;;;;25.80;72.60;;;;;;5036314;28;20375;-63
2022/09/06 04:58:28;;;;;;;;;;;25.60;72.80;;;;;;5047643;28;19924;-62
2022/09/06 05:00:53;;;;;;;;;;;25.70;72.70;;;;;;5038263;28;20275;-62
2022/09/06 05:03:19;;;;;;;;;;;25.70;72.60;;;;;;5045892;28;20366;-62
2022/09/06 05:05:44;;;;;;;;;;;25.90;72.80;;;;;;5037153;28;19956;-63
2022/09/06 05:08:10;;;;;;;;;;;25.50;72.50;;;;;;5045504;28;19965;-67
2022/09/06 05:10:36;;;;;;;;;;;25.80;72.60;;;;;;5047429;28;20283;-63
2022/09/06 05:13:02;;;;;;;;;;;26.00;72.70;;;;;;5040070;28;19948;-62
2022/09/06 05:15:28;;;;;;;;;;;25.50;72.20;;;;;;5059617;28;19929;-62
2022/09/06 05:17:59;;;;;;;;;;;25.90;72.70;;;;;;5043284;28;19924;-63
2022/09/06 05:20:25;;;;;;;;;;;26.00;73.10;;;;;;5051587;28;20020;-61
2022/09/06 05:22:52;;;;;;;;;;;26.00;72.90;;;;;;5040040;28;19999;-62
2022/09/06 05:25:17;;;;;;;;;;;25.90;73.20;;;;;;5046482;28;19931;-62
2022/09/06 05:27:43;;;;;;;;;;;25.70;72.90;;;;;;5051423;28;20016;-61
2022/09/06 05:30:09;;;;;;;;;;;25.80;73.10;;;;;;5041779;28;20286;-62
2022/09/06 05:32:34;;;;;;;;;;;25.80;72.60;;;;;;5043225;28;19924;-64
2022/09/06 05:35:00;;;;;;;;;;;25.60;72.90;;;;;;5045404;28;19971;-62
2022/09/06 05:37:26;;;;;;;;;;;25.90;73.00;;;;;;5045632;28;19925;-62
2022/09/06 05:39:51;;;;;;;;;;;25.60;73.10;;;;;;5051317;28;19925;-62
2022/09/06 05:42:17;;;;;;;;;;;25.70;73.10;;;;;;5043708;28;19932;-62
2022/09/06 05:44:43;;;;;;;;;;;25.90;73.30;;;;;;5035553;28;19933;-62
2022/09/06 05:47:08;;;;;;;;;;;25.80;73.00;;;;;;5035320;28;19925;-62
2022/09/06 05:49:34;;;;;;;;;;;25.80;73.20;;;;;;5042672;28;19924;-61
2022/09/06 05:52:00;;;;;;;;;;;25.70;73.30;;;;;;5052896;28;20294;-61
2022/09/06 05:54:25;;;;;;;;;;;25.60;73.20;;;;;;5040720;28;19931;-62
2022/09/06 05:56:51;;;;;;;;;;;26.00;73.60;;;;;;5035661;28;19968;-61
2022/09/06 05:59:16;;;;;;;;;;;25.60;73.40;;;;;;5035126;28;20410;-62
2022/09/06 06:01:46;;;;;;;;;;;25.80;73.50;;;;;;5043078;28;19983;-66
2022/09/06 06:04:12;;;;;;;;;;;25.60;72.30;;;;;;5042312;28;19925;-62
2022/09/06 06:06:37;;;;;;;;;;;25.70;73.60;;;;;;5036140;28;20013;-64
2022/09/06 06:09:03;;;;;;;;;;;25.80;73.80;;;;;;5030347;28;19929;-71
2022/09/06 06:11:29;;;;;;;;;;;25.80;74.20;;;;;;5041243;28;19925;-61
2022/09/06 06:13:55;;;;;;;;;;;26.00;74.10;;;;;;5039644;28;20290;-62
2022/09/06 06:16:21;;;;;;;;;;;25.90;73.70;;;;;;5044853;28;19986;-63
2022/09/06 06:18:47;;;;;;;;;;;25.70;73.70;;;;;;5043308;28;19925;-62
2022/09/06 06:21:13;;;;;;;;;;;25.90;73.80;;;;;;5053261;28;19978;-62
2022/09/06 06:23:39;;;;;;;;;;;25.70;74.10;;;;;;5052832;28;20435;-63
2022/09/06 06:26:04;;;;;;;;;;;25.70;73.80;;;;;;5052513;28;19932;-67
2022/09/06 06:28:31;;;;;;;;;;;25.90;73.80;;;;;;5049608;28;19947;-67
2022/09/06 06:30:56;;;;;;;;;;;25.80;73.70;;;;;;5044621;28;19927;-81
2022/09/06 06:33:22;;;;;;;;;;;25.60;73.90;;;;;;5036963;28;19928;-82
2022/09/06 06:35:57;;;;;;;;;;;25.70;74.00;;;;;;5042107;28;19987;-71
2022/09/06 06:38:23;;;;;;;;;;;25.90;72.90;;;;;;5044493;28;19970;-79
2022/09/06 06:40:48;;;;;;;;;;;25.60;73.90;;;;;;5052291;28;20359;-78
2022/09/06 06:43:14;;;;;;;;;;;25.90;74.00;;;;;;5047724;28;19952;-62
2022/09/06 06:45:39;;;;;;;;;;;26.00;74.20;;;;;;5048434;28;20302;-64
2022/09/06 06:48:05;;;;;;;;;;;26.00;74.20;;;;;;5036646;28;19935;-69
2022/09/06 06:50:31;;;;;;;;;;;25.90;74.20;;;;;;5047610;28;20294;-65
2022/09/06 06:52:56;;;;;;;;;;;25.90;74.20;;;;;;5053066;28;20437;-64
2022/09/06 06:55:22;;;;;;;;;;;26.00;74.50;;;;;;5048398;28;19925;-64
2022/09/06 06:57:47;;;;;;;;;;;26.10;74.60;;;;;;5034963;28;19925;-64
2022/09/06 07:00:13;;;;;;;;;;;25.80;74.40;;;;;;5044726;28;19971;-65
2022/09/06 07:02:39;;;;;;;;;;;26.00;74.90;;;;;;5040812;28;19937;-65
2022/09/06 07:05:05;;;;;;;;;;;25.90;74.50;;;;;;5041694;28;19925;-69
2022/09/06 07:07:30;;;;;;;;;;;25.70;74.20;;;;;;5047679;28;19921;-66
2022/09/06 07:09:56;;;;;;;;;;;25.90;74.60;;;;;;5047771;28;20378;-83
2022/09/06 07:12:22;;;;;;;;;;;25.80;74.30;;;;;;5050954;28;19925;-85
2022/09/06 07:14:48;;;;;;;;;;;25.80;74.50;;;;;;5065503;28;20362;-79
2022/09/06 07:17:15;;;;;;;;;;;25.70;73.90;;;;;;5041662;28;19925;-67
2022/09/06 07:19:42;;;;;;;;;;;25.50;73.50;;;;;;5040948;28;19932;-66
2022/09/06 07:22:07;;;;;;;;;;;25.80;74.90;;;;;;5045285;28;19925;-65
2022/09/06 07:24:33;;;;;;;;;;;25.80;75.50;;;;;;5044910;28;19972;-65
2022/09/06 07:26:59;;;;;;;;;;;25.40;75.50;;;;;;5039485;28;20454;-65
2022/09/06 07:29:25;;;;;;;;;;;25.40;75.70;;;;;;5044005;28;20325;-65
2022/09/06 07:31:55;;;;;;;;;;;25.50;75.80;;;;;;5036655;28;19931;-65
2022/09/06 07:34:20;;;;;;;;;;;25.40;76.10;;;;;;5040344;28;19971;-63
2022/09/06 07:36:47;;;;;;;;;;;25.40;76.10;;;;;;5031158;28;20399;-62
2022/09/06 07:39:13;;;;;;;;;;;25.00;76.20;;;;;;5047401;28;19925;-62
2022/09/06 07:41:38;;;;;;;;;;;25.00;76.20;;;;;;5043901;28;19975;-62
2022/09/06 07:44:04;;;;;;;;;;;25.00;76.70;;;;;;5049252;28;19952;-62
2022/09/06 07:46:29;;;;;;;;;;;24.80;76.70;;;;;;5044189;28;20309;-63
2022/09/06 07:48:55;;;;;;;;;;;25.00;77.20;;;;;;5042994;28;19950;-62
2022/09/06 07:51:21;;;;;;;;;;;24.40;76.70;;;;;;5040812;28;20012;-62
2022/09/06 07:53:49;;;;;;;;;;;24.60;77.30;;;;;;5019940;28;19933;-63
2022/09/06 07:56:15;;;;;;;;;;;24.60;77.50;;;;;;5049753;28;19925;-62
2022/09/06 07:58:41;;;;;;;;;;;24.80;77.60;;;;;;5037550;28;19948;-67
2022/09/06 08:01:26;;;;;;;;;;;24.60;76.90;;;;;;5047619;28;19925;-65
2022/09/06 08:03:52;;;;;;;;;;;24.40;76.40;;;;;;5042307;28;20337;-65
2022/09/06 08:06:18;;;;;;;;;;;24.60;77.60;;;;;;5042199;28;19926;-67
2022/09/06 08:08:44;;;;;;;;;;;24.50;77.80;;;;;;5034080;28;19965;-70
2022/09/06 08:11:11;;;;;;;;;;;24.40;77.50;;;;;;5034677;28;19929;-80
2022/09/06 08:13:40;;;;;;;;;;;24.30;76.40;;;;;;5040946;28;19920;-67
2022/09/06 08:16:07;;;;;;;;;;;24.70;76.90;;;;;;5044683;28;20410;-63
2022/09/06 08:18:33;;;;;;;;;;;24.60;77.80;;;;;;5062645;28;19937;-84
2022/09/06 08:21:06;;;;;;;;;;;24.90;78.00;;;;;;5035721;28;20453;-86
2022/09/06 08:23:32;;;;;;;;;;;24.40;76.10;;;;;;5064750;28;19925;-64
2022/09/06 08:25:57;;;;;;;;;;;24.60;77.10;;;;;;5044917;28;20031;-66
2022/09/06 08:28:23;;;;;;;;;;;24.70;77.40;;;;;;5045478;28;19925;-65
2022/09/06 08:30:49;;;;;;;;;;;24.80;77.40;;;;;;5055170;28;19929;-65
2022/09/06 08:33:16;;;;;;;;;;;25.30;77.10;;;;;;5039537;28;20294;-85
2022/09/06 08:35:42;;;;;;;;;;;25.40;77.30;;;;;;5049039;28;19944;-66
2022/09/06 08:38:07;;;;;;;;;;;25.20;76.40;;;;;;5037238;28;19925;-63
2022/09/06 08:40:33;;;;;;;;;;;25.60;76.20;;;;;;5044563;28;19926;-72
2022/09/06 08:42:59;;;;;;;;;;;25.70;75.90;;;;;;5048218;28;19925;-80
2022/09/06 08:45:24;;;;;;;;;;;25.90;75.50;;;;;;5029496;28;19928;-62
2022/09/06 08:47:51;;;;;;;;;;;25.70;75.10;;;;;;5019290;28;19925;-62
2022/09/06 08:50:16;;;;;;;;;;;25.90;75.10;;;;;;5032312;28;19927;-62
2022/09/06 08:53:14;;;;;;;;;;;26.00;74.80;;;;;;5037918;28;19925;-65
2022/09/06 08:55:44;;;;;;;;;;;26.00;73.70;;;;;;4961010;28;19933;-66
2022/09/06 08:58:13;;;;;;;;;;;26.30;75.30;;;;;;4923942;28;19930;-69
2022/09/06 09:00:40;;;;;;;;;;;26.30;73.80;;;;;;4970028;28;19926;-67
2022/09/06 09:03:08;;;;;;;;;;;26.20;75.00;;;;;;4973978;28;19933;-63
2022/09/06 09:05:34;;;;;;;;;;;26.30;75.10;;;;;;4972812;28;20049;-63
2022/09/06 09:08:00;;;;;;;;;;;26.10;74.70;;;;;;4937396;28;19978;-63
2022/09/06 09:10:29;;;;;;;;;;;26.40;74.70;;;;;;4961437;28;19931;-67
2022/09/06 09:12:55;;;;;;;;;;;26.20;73.40;;;;;;4955583;29;19965;-80
2022/09/06 09:15:21;;;;;;;;;;;26.50;74.20;;;;;;4939780;29;20412;-63
2022/09/06 09:17:47;;;;;;;;;;;26.60;74.50;;;;;;4959330;28;19926;-63
2022/09/06 09:20:13;;;;;;;;;;;26.30;74.50;;;;;;4956041;28;19926;-62
2022/09/06 09:22:39;;;;;;;;;;;26.50;74.30;;;;;;4969132;28;19932;-63
2022/09/06 09:25:05;;;;;;;;;;;26.50;74.50;;;;;;4974460;28;20269;-63
2022/09/06 09:27:30;;;;;;;;;;;26.50;74.20;;;;;;4953107;29;19933;-63
2022/09/06 09:30:00;;;;;;;;;;;26.60;74.50;;;;;;4953126;29;19923;-67
2022/09/06 09:32:39;;;;;;;;;;;26.50;74.30;;;;;;5050474;28;19925;-63
2022/09/06 09:35:20;;;;;;;;;;;26.50;73.00;;;;;;5037081;28;20379;-63
2022/09/06 09:37:46;;;;;;;;;;;26.70;73.00;;;;;;5054542;28;19932;-67
2022/09/06 09:40:13;;;;;;;;;;;26.40;74.00;;;;;;5020338;28;20375;-63
2022/09/06 09:42:38;;;;;;;;;;;26.70;74.20;;;;;;5024083;28;20437;-63
2022/09/06 09:45:21;;;;;;;;;;;26.40;73.40;;;;;;5061643;28;19928;-66
2022/09/06 09:47:47;;;;;;;;;;;26.50;72.40;;;;;;5019078;28;19975;-63
2022/09/06 09:50:23;;;;;;;;;;;26.40;73.50;;;;;;5049821;28;20355;-63
2022/09/06 09:52:49;;;;;;;;;;;26.40;72.30;;;;;;5059999;28;19990;-63
2022/09/06 09:55:15;;;;;;;;;;;26.20;73.20;;;;;;5039764;28;19925;-66
2022/09/06 09:57:44;;;;;;;;;;;26.20;73.30;;;;;;5034745;28;20326;-64
2022/09/06 10:00:13;;;;;;;;;;;26.60;72.20;;;;;;5031337;28;19980;-63
2022/09/06 10:02:41;;;;;;;;;;;26.50;73.00;;;;;;5027843;28;20390;-63
2022/09/06 10:05:10;;;;;;;;;;;26.80;72.40;;;;;;5037882;28;19924;-63
2022/09/06 10:07:49;;;;;;;;;;;26.80;72.30;;;;;;5047767;28;19971;-63
2022/09/06 10:10:14;;;;;;;;;;;26.30;72.00;;;;;;5013322;28;19932;-63
2022/09/06 10:12:40;;;;;;;;;;;26.40;73.00;;;;;;5015128;28;20016;-63
2022/09/06 10:15:07;;;;;;;;;;;26.40;73.20;;;;;;5046210;28;19925;-63
2022/09/06 10:17:33;;;;;;;;;;;26.30;73.20;;;;;;5026552;28;19925;-62
2022/09/06 10:20:05;;;;;;;;;;;26.50;73.90;;;;;;5069589;28;19935;-63
2022/09/06 10:22:31;;;;;;;;;;;26.50;73.70;;;;;;5047228;28;19925;-63
2022/09/06 10:24:59;;;;;;;;;;;26.70;73.90;;;;;;5047883;28;19936;-63
2022/09/06 10:27:25;;;;;;;;;;;26.60;72.30;;;;;;5046962;28;19924;-63
2022/09/06 10:30:04;;;;;;;;;;;26.60;73.50;;;;;;5052451;28;19921;-64
2022/09/06 10:32:36;;;;;;;;;;;26.60;72.10;;;;;;5045931;28;19933;-68
2022/09/06 10:35:08;;;;;;;;;;;26.60;72.10;;;;;;5015512;28;19926;-67
2022/09/06 10:37:52;;;;;;;;;;;26.70;71.90;;;;;;5020100;28;19925;-63
2022/09/06 10:40:29;;;;;;;;;;;26.70;72.00;;;;;;5030137;28;20343;-63
2022/09/06 10:42:55;;;;;;;;;;;26.40;73.10;;;;;;5068897;28;19925;-65
2022/09/06 10:45:40;;;;;;;;;;;26.70;73.20;;;;;;5054242;28;19925;-64
2022/09/06 10:48:12;;;;;;;;;;;26.70;71.80;;;;;;5044088;28;19929;-66
2022/09/06 10:50:37;;;;;;;;;;;26.80;71.80;;;;;;5053640;28;19984;-63
2022/09/06 10:53:09;;;;;;;;;;;26.80;72.80;;;;;;5035670;28;19963;-64
2022/09/06 10:55:38;;;;;;;;;;;26.90;71.70;;;;;;5032692;28;19931;-64
2022/09/06 10:58:04;;;;;;;;;;;27.00;73.00;;;;;;5041655;28;20330;-64
2022/09/06 11:00:38;;;;;;;;;;;26.60;72.30;;;;;;5054217;28;19924;-63
2022/09/06 11:03:09;;;;;;;;;;;27.00;71.50;;;;;;5053429;28;19932;-63
2022/09/06 11:05:37;;;;;;;;;;;26.90;73.40;;;;;;5053650;28;19925;-64
2022/09/06 11:08:03;;;;;;;;;;;26.80;72.70;;;;;;5050123;28;20426;-64
2022/09/06 11:10:30;;;;;;;;;;;26.90;72.80;;;;;;5019080;28;20330;-65
2022/09/06 11:12:56;;;;;;;;;;;27.10;72.60;;;;;;5029727;28;20390;-71
2022/09/06 11:15:21;;;;;;;;;;;26.90;72.20;;;;;;5032028;28;19932;-72
2022/09/06 11:17:51;;;;;;;;;;;26.70;71.70;;;;;;5036262;28;19941;-71
2022/09/06 11:20:33;;;;;;;;;;;27.10;71.10;;;;;;5033519;28;19932;-63
2022/09/06 11:23:02;;;;;;;;;;;27.00;70.90;;;;;;5032633;28;19988;-63
2022/09/06 11:25:36;;;;;;;;;;;27.20;71.10;;;;;;5035307;28;19925;-63
2022/09/06 11:28:01;;;;;;;;;;;27.00;70.80;;;;;;5012944;28;19932;-64
2022/09/06 11:30:28;;;;;;;;;;;27.20;72.00;;;;;;5052830;28;19925;-66
2022/09/06 11:33:26;;;;;;;;;;;27.20;71.60;;;;;;5065287;28;19925;-64
2022/09/06 11:35:52;;;;;;;;;;;27.50;70.90;;;;;;5031314;28;19971;-63
2022/09/06 11:38:19;;;;;;;;;;;27.40;71.80;;;;;;4995339;28;20368;-63
2022/09/06 11:40:45;;;;;;;;;;;27.40;72.10;;;;;;5011777;28;19925;-63
2022/09/06 11:43:13;;;;;;;;;;;27.40;72.00;;;;;;5011564;28;19931;-64
2022/09/06 11:45:45;;;;;;;;;;;27.30;71.20;;;;;;5002587;28;20528;-63
2022/09/06 11:48:22;;;;;;;;;;;27.30;70.20;;;;;;5018910;28;19973;-64
2022/09/06 11:50:55;;;;;;;;;;;27.30;70.20;;;;;;5044132;28;19929;-63
2022/09/06 11:53:21;;;;;;;;;;;27.50;70.30;;;;;;5032379;28;19933;-62
2022/09/06 11:56:19;;;;;;;;;;;27.40;71.70;;;;;;5019180;28;19948;-63
2022/09/06 11:58:50;;;;;;;;;;;27.40;70.20;;;;;;4977917;28;19926;-62
2022/09/06 12:01:19;;;;;;;;;;;27.60;70.10;;;;;;4967353;28;19926;-63
2022/09/06 12:03:45;;;;;;;;;;;27.50;69.90;;;;;;4969566;28;19949;-62
2022/09/06 12:06:14;;;;;;;;;;;27.40;70.00;;;;;;4956913;28;19933;-64
2022/09/06 12:08:40;;;;;;;;;;;27.60;70.00;;;;;;4958382;28;19930;-62
2022/09/06 12:11:20;;;;;;;;;;;27.80;70.90;;;;;;4977183;28;19981;-63
2022/09/06 12:13:51;;;;;;;;;;;27.50;70.90;;;;;;4974438;28;19965;-62
2022/09/06 12:16:17;;;;;;;;;;;27.70;69.70;;;;;;4972409;28;19926;-62
2022/09/06 12:18:45;;;;;;;;;;;27.80;71.00;;;;;;4974877;28;20069;-62
2022/09/06 12:21:29;;;;;;;;;;;27.60;69.70;;;;;;4967867;28;19926;-62
2022/09/06 12:23:55;;;;;;;;;;;27.60;69.70;;;;;;4966775;28;19926;-61
2022/09/06 12:26:39;;;;;;;;;;;27.80;71.20;;;;;;4974894;28;19933;-62
2022/09/06 12:29:09;;;;;;;;;;;28.00;69.90;;;;;;4956562;29;20017;-62
2022/09/06 12:31:38;;;;;;;;;;;27.70;71.20;;;;;;4985633;28;20308;-62
2022/09/06 12:34:05;;;;;;;;;;;27.90;69.90;;;;;;4999896;28;20020;-62
2022/09/06 12:36:30;;;;;;;;;;;27.80;71.30;;;;;;5037716;28;19925;-62
2022/09/06 12:39:00;;;;;;;;;;;27.70;71.10;;;;;;5027112;28;19925;-66
2022/09/06 12:41:26;;;;;;;;;;;27.50;69.70;;;;;;5034644;28;19925;-61
2022/09/06 12:43:54;;;;;;;;;;;27.90;71.50;;;;;;5036269;28;19927;-63
2022/09/06 12:46:20;;;;;;;;;;;27.90;71.10;;;;;;5034438;28;20409;-62
2022/09/06 12:48:58;;;;;;;;;;;27.90;71.20;;;;;;5048576;28;19925;-63
2022/09/06 12:51:24;;;;;;;;;;;27.70;71.20;;;;;;5033066;28;19988;-64
2022/09/06 12:53:53;;;;;;;;;;;27.60;71.00;;;;;;5033932;28;19925;-62
2022/09/06 12:56:20;;;;;;;;;;;27.90;69.90;;;;;;5022355;28;20396;-62
2022/09/06 12:58:46;;;;;;;;;;;27.70;71.00;;;;;;5014940;28;19933;-62
2022/09/06 13:01:14;;;;;;;;;;;27.80;70.60;;;;;;5016549;28;20326;-63
2022/09/06 13:03:39;;;;;;;;;;;27.90;71.30;;;;;;5028822;28;20287;-61
2022/09/06 13:06:05;;;;;;;;;;;28.00;70.90;;;;;;5033083;28;19932;-63
2022/09/06 13:08:35;;;;;;;;;;;27.80;71.10;;;;;;5031618;28;19948;-63
2022/09/06 13:11:01;;;;;;;;;;;27.90;69.70;;;;;;5066119;28;19987;-63
2022/09/06 13:13:27;;;;;;;;;;;27.90;70.60;;;;;;5053861;28;19925;-62
2022/09/06 13:15:53;;;;;;;;;;;27.80;70.90;;;;;;5067144;28;19924;-64
2022/09/06 13:18:35;;;;;;;;;;;28.00;70.90;;;;;;5021445;28;19935;-62
2022/09/06 13:21:04;;;;;;;;;;;27.80;69.70;;;;;;5044859;28;19924;-68
2022/09/06 13:23:40;;;;;;;;;;;27.80;71.10;;;;;;5052989;28;19924;-62
2022/09/06 13:26:06;;;;;;;;;;;27.70;69.60;;;;;;5035826;28;20446;-62
2022/09/06 13:28:32;;;;;;;;;;;28.20;71.20;;;;;;5036098;28;20016;-61
2022/09/06 13:31:02;;;;;;;;;;;27.90;71.30;;;;;;5054706;28;19979;-62
2022/09/06 13:33:28;;;;;;;;;;;28.00;70.00;;;;;;5050772;28;19929;-66
2022/09/06 13:36:04;;;;;;;;;;;28.10;70.70;;;;;;5043513;28;20368;-63
2022/09/06 13:38:33;;;;;;;;;;;28.00;69.90;;;;;;5053510;28;19936;-63
2022/09/06 13:41:00;;;;;;;;;;;27.80;70.40;;;;;;5052415;28;19929;-62
2022/09/06 13:43:25;;;;;;;;;;;27.80;71.10;;;;;;5052906;28;19936;-62
2022/09/06 13:46:04;;;;;;;;;;;28.00;71.20;;;;;;5052835;28;19931;-62
2022/09/06 13:48:29;;;;;;;;;;;28.20;70.10;;;;;;5052445;28;19929;-62
2022/09/06 13:50:55;;;;;;;;;;;28.00;71.20;;;;;;5039041;28;20276;-62
2022/09/06 13:53:20;;;;;;;;;;;27.80;70.90;;;;;;5054193;28;19939;-62
2022/09/06 13:55:46;;;;;;;;;;;28.10;71.30;;;;;;5054903;28;19931;-67
2022/09/06 13:58:12;;;;;;;;;;;28.10;71.20;;;;;;5035204;28;19932;-63
2022/09/06 14:00:38;;;;;;;;;;;28.10;71.30;;;;;;5052559;28;19925;-62
2022/09/06 14:03:04;;;;;;;;;;;27.90;71.20;;;;;;5051402;28;19928;-69
2022/09/06 14:05:30;;;;;;;;;;;28.10;71.40;;;;;;5039484;28;20367;-66
2022/09/06 14:07:55;;;;;;;;;;;28.00;71.20;;;;;;5034679;28;19925;-63
2022/09/06 14:10:22;;;;;;;;;;;27.80;71.20;;;;;;5041468;28;20011;-62
2022/09/06 14:12:48;;;;;;;;;;;28.10;71.50;;;;;;5054823;28;20286;-62
2022/09/06 14:15:14;;;;;;;;;;;27.90;71.60;;;;;;5054211;28;20009;-62
2022/09/06 14:17:40;;;;;;;;;;;28.00;71.50;;;;;;5053730;28;19925;-62
2022/09/06 14:20:05;;;;;;;;;;;28.10;71.70;;;;;;5051758;28;19947;-62